Time;durP1;ratioP1;P1;durP2;ratioP2;P2;SDS_P1;SDS_P2;PMS_P1;PMS_P2;Temp;Humidity;BMP_temperature;BMP_pressure;BME280_temperature;BME280_humidity;BME280_pressure;Samples;Min_cycle;Max_cycle;Signal;HPM_P1;HPM_P2
2023/08/10 00:02:14;;;;;;;3.60;3.40;;;16.20;99.90;;;;;;6253461;23;20409;-80
2023/08/10 00:05:05;;;;;;;3.67;3.00;;;16.20;99.90;;;;;;6257974;23;20402;-78
2023/08/10 00:10:55;;;;;;;3.43;2.70;;;16.10;99.90;;;;;;6249709;23;20464;-78
2023/08/10 00:13:35;;;;;;;4.00;2.60;;;16.10;99.90;;;;;;6250303;23;20841;-78
2023/08/10 00:16:35;;;;;;;3.53;3.33;;;16.10;99.90;;;;;;6252942;23;20520;-78
2023/08/10 00:19:31;;;;;;;2.80;2.70;;;16.10;99.90;;;;;;6264386;23;20405;-79
2023/08/10 00:22:35;;;;;;;2.47;2.37;;;16.10;99.90;;;;;;6233298;23;20438;-77
2023/08/10 00:29:09;;;;;;;2.93;2.83;;;16.00;99.90;;;;;;6177112;23;20392;-77
2023/08/10 00:32:10;;;;;;;3.00;2.80;;;16.00;99.90;;;;;;6261214;23;20409;-77
2023/08/10 00:37:54;;;;;;;3.83;3.63;;;15.80;99.90;;;;;;6257283;23;20492;-81
2023/08/10 00:40:55;;;;;;;3.30;3.10;;;15.80;99.90;;;;;;6258644;23;20467;-77
2023/08/10 00:44:04;;;;;;;;;;;;;;;;;;;;;
2023/08/10 00:47:28;;;;;;;3.40;3.10;;;15.70;99.90;;;;;;6257554;22;20425;-79
2023/08/10 00:50:36;;;;;;;3.57;3.37;;;15.70;99.90;;;;;;6208796;23;20424;-77
2023/08/10 00:53:34;;;;;;;3.73;3.43;;;15.60;99.90;;;;;;6153722;23;20417;-78
2023/08/10 00:56:20;;;;;;;2.70;2.60;;;15.60;99.90;;;;;;6256800;23;20437;-80
2023/08/10 00:58:55;;;;;;;3.50;3.30;;;15.50;99.90;;;;;;6256626;23;20450;-79
2023/08/10 01:01:54;;;;;;;2.93;2.73;;;15.50;99.90;;;;;;6255634;23;20506;-79
2023/08/10 01:05:02;;;;;;;4.20;3.80;;;15.50;99.90;;;;;;6255328;23;20413;-78
2023/08/10 01:08:16;;;;;;;3.20;3.00;;;15.50;99.90;;;;;;6252177;23;20465;-77
2023/08/10 01:11:46;;;;;;;;;;;;;;;;;;;;;
2023/08/10 01:15:09;;;;;;;3.23;3.03;;;15.30;99.90;;;;;;6220612;23;20459;-81
2023/08/10 01:21:18;;;;;;;3.80;3.50;;;15.30;99.90;;;;;;6242012;23;20466;-78
2023/08/10 01:24:22;;;;;;;3.63;3.43;;;15.20;99.90;;;;;;6251063;23;20476;-79
2023/08/10 01:27:07;;;;;;;3.50;3.30;;;15.20;99.90;;;;;;6250584;23;20482;-79
2023/08/10 01:29:51;;;;;;;3.77;3.57;;;15.20;99.90;;;;;;6254351;23;20417;-77
2023/08/10 01:32:26;;;;;;;3.50;3.20;;;15.20;99.90;;;;;;6253895;22;20424;-78
2023/08/10 01:35:01;;;;;;;4.17;3.77;;;15.20;99.90;;;;;;6252946;23;20436;-78
2023/08/10 01:40:20;;;;;;;3.77;3.57;;;15.10;99.90;;;;;;6254705;22;20457;-79
2023/08/10 01:42:58;;;;;;;3.97;3.67;;;15.00;99.90;;;;;;6259032;23;20428;-79
2023/08/10 01:45:30;;;;;;;4.30;3.90;;;14.90;99.90;;;;;;6259180;23;20417;-78
2023/08/10 01:51:16;;;;;;;3.77;3.47;;;14.90;99.90;;;;;;6250665;23;20899;-77
2023/08/10 01:53:59;;;;;;;4.10;3.80;;;14.80;99.90;;;;;;6252905;23;20507;-78
2023/08/10 01:56:36;;;;;;;3.70;3.50;;;14.80;99.90;;;;;;6251449;23;20748;-78
2023/08/10 01:59:15;;;;;;;4.20;3.90;;;14.80;99.90;;;;;;6251133;23;20434;-79
2023/08/10 02:01:43;;;;;;;4.20;3.80;;;14.70;99.90;;;;;;6251395;22;20419;-79
2023/08/10 02:04:11;;;;;;;4.27;3.87;;;14.70;99.90;;;;;;6252262;23;20409;-78
2023/08/10 02:06:40;;;;;;;4.10;3.80;;;14.60;99.90;;;;;;6252169;23;20418;-77
2023/08/10 02:09:14;;;;;;;4.23;3.90;;;14.60;99.90;;;;;;6250604;23;20413;-78
2023/08/10 02:11:46;;;;;;;4.30;4.00;;;14.60;99.90;;;;;;6249870;23;20370;-80
2023/08/10 02:14:16;;;;;;;4.03;3.80;;;14.50;99.90;;;;;;6249657;23;20805;-78
2023/08/10 02:16:48;;;;;;;4.60;3.80;;;14.50;99.90;;;;;;6249739;23;20460;-78
2023/08/10 02:19:27;;;;;;;3.50;3.30;;;14.50;99.90;;;;;;6250804;23;20436;-79
2023/08/10 02:22:01;;;;;;;4.07;3.67;;;14.50;99.90;;;;;;6252062;23;20416;-78
2023/08/10 02:24:41;;;;;;;6.23;4.23;;;14.50;99.90;;;;;;6248656;22;20476;-80
2023/08/10 02:27:15;;;;;;;3.73;3.53;;;14.40;99.90;;;;;;6247936;23;20413;-80
2023/08/10 02:29:53;;;;;;;4.60;4.30;;;14.40;99.90;;;;;;6247728;23;20500;-78
2023/08/10 02:32:41;;;;;;;5.07;4.77;;;14.40;99.90;;;;;;6247462;23;20408;-79
2023/08/10 02:35:15;;;;;;;4.30;4.00;;;14.40;99.90;;;;;;6247860;23;20495;-79
2023/08/10 02:37:52;;;;;;;4.70;4.30;;;14.30;99.90;;;;;;6246117;23;20436;-80
2023/08/10 02:40:47;;;;;;;4.77;4.37;;;14.30;99.90;;;;;;6247474;23;20467;-77
2023/08/10 02:44:00;;;;;;;4.60;4.30;;;14.20;99.90;;;;;;6247553;23;20464;-78
2023/08/10 02:46:40;;;;;;;5.30;4.83;;;14.00;99.90;;;;;;6104968;23;20429;-77
2023/08/10 02:49:24;;;;;;;4.50;4.20;;;14.20;99.90;;;;;;6247473;23;20394;-80
2023/08/10 02:52:07;;;;;;;4.80;4.40;;;14.20;99.90;;;;;;6246675;23;20420;-79
2023/08/10 02:54:59;;;;;;;5.07;4.60;;;14.20;99.90;;;;;;6246985;23;20521;-80
2023/08/10 02:57:48;;;;;;;5.07;4.73;;;14.10;99.90;;;;;;6247053;23;20491;-78
2023/08/10 03:00:25;;;;;;;4.93;4.43;;;14.00;99.90;;;;;;6246823;23;20907;-79
2023/08/10 03:03:04;;;;;;;4.53;4.23;;;13.90;99.90;;;;;;6246953;23;20443;-79
2023/08/10 03:06:02;;;;;;;5.00;4.70;;;13.90;99.90;;;;;;6247165;23;20441;-79
2023/08/10 03:11:54;;;;;;;;;;;;;;;;;;;;;
2023/08/10 03:14:43;;;;;;;5.67;5.27;;;14.10;99.90;;;;;;6245749;23;20934;-78
2023/08/10 03:17:54;;;;;;;5.40;4.87;;;13.80;99.90;;;;;;6231730;22;20441;-78
2023/08/10 03:20:50;;;;;;;5.77;5.40;;;13.80;99.90;;;;;;6248302;23;20472;-78
2023/08/10 03:23:37;;;;;;;5.50;5.00;;;13.70;99.90;;;;;;6250334;23;20409;-78
2023/08/10 03:26:25;;;;;;;5.60;5.10;;;13.70;99.90;;;;;;6247491;22;20950;-80
2023/08/10 03:32:22;;;;;;;6.23;5.57;;;13.70;99.90;;;;;;6207652;23;20401;-77
2023/08/10 03:35:16;;;;;;;6.80;6.30;;;13.70;99.90;;;;;;6248385;23;20484;-77
2023/08/10 03:38:12;;;;;;;7.43;6.10;;;13.70;99.90;;;;;;6249964;23;20529;-78
2023/08/10 03:41:10;;;;;;;6.90;6.20;;;13.70;99.90;;;;;;6248791;22;20981;-78
2023/08/10 03:43:51;;;;;;;6.83;6.27;;;13.70;99.90;;;;;;6250375;23;20468;-79
2023/08/10 03:46:53;;;;;;;6.43;5.93;;;13.70;99.90;;;;;;6249204;23;20487;-78
2023/08/10 03:49:28;;;;;;;7.93;7.33;;;13.70;99.90;;;;;;6240474;23;20408;-78
2023/08/10 03:52:26;;;;;;;8.77;7.43;;;13.60;99.90;;;;;;6250347;23;20434;-78
2023/08/10 04:00:35;;;;;;;7.57;6.97;;;13.60;99.90;;;;;;6234438;22;20409;-78
2023/08/10 04:03:17;;;;;;;7.77;7.07;;;13.60;99.90;;;;;;6248092;23;20386;-79
2023/08/10 04:06:07;;;;;;;8.20;6.80;;;13.60;99.90;;;;;;6247950;23;20432;-79
2023/08/10 04:08:41;;;;;;;10.17;7.00;;;13.60;99.90;;;;;;6245957;23;20432;-78
2023/08/10 04:15:01;;;;;;;8.67;7.77;;;13.50;99.90;;;;;;6239541;23;20417;-79
2023/08/10 04:18:31;;;;;;;;;;;;;;;;;;;;;
2023/08/10 04:21:32;;;;;;;8.20;7.40;;;13.50;99.90;;;;;;6229718;23;20899;-79
2023/08/10 04:24:04;;;;;;;9.30;7.83;;;13.50;99.90;;;;;;6243893;23;20417;-80
2023/08/10 04:26:41;;;;;;;9.00;8.20;;;13.40;99.90;;;;;;6243690;23;20441;-79
2023/08/10 04:29:29;;;;;;;8.50;7.70;;;13.40;99.90;;;;;;6244569;23;20416;-79
2023/08/10 04:32:28;;;;;;;8.33;7.57;;;13.40;99.90;;;;;;6245431;23;20420;-78
2023/08/10 04:35:20;;;;;;;8.97;8.00;;;13.40;99.90;;;;;;6231142;22;20420;-81
2023/08/10 04:37:56;;;;;;;8.50;7.30;;;13.40;99.90;;;;;;6244179;23;20958;-80
2023/08/10 04:40:53;;;;;;;8.63;7.93;;;13.40;99.90;;;;;;6251800;23;20409;-80
2023/08/10 04:50:25;;;;;;;10.50;9.50;;;13.40;99.90;;;;;;6219262;23;20410;-80
2023/08/10 04:53:04;;;;;;;13.63;9.70;;;13.50;99.90;;;;;;6244903;23;20420;-80
2023/08/10 04:56:14;;;;;;;12.87;9.27;;;13.50;99.90;;;;;;6245674;23;20432;-79
2023/08/10 04:59:17;;;;;;;8.03;7.47;;;13.50;99.90;;;;;;6246544;23;20468;-79
2023/08/10 05:01:59;;;;;;;8.60;7.80;;;13.50;99.90;;;;;;6247348;23;20408;-79
2023/08/10 05:05:07;;;;;;;8.73;7.90;;;13.60;99.90;;;;;;6246565;22;20413;-78
2023/08/10 05:11:43;;;;;;;8.93;8.23;;;13.60;99.90;;;;;;6160484;23;20415;-81
2023/08/10 05:14:44;;;;;;;9.80;8.93;;;13.60;99.90;;;;;;6024479;23;20782;-79
2023/08/10 05:17:30;;;;;;;11.53;8.80;;;13.80;99.90;;;;;;6072022;23;20410;-80
2023/08/10 05:20:24;;;;;;;12.20;8.33;;;13.70;99.90;;;;;;6161994;23;20416;-79
2023/08/10 05:23:18;;;;;;;10.17;9.17;;;13.70;99.90;;;;;;6166434;23;20418;-79
2023/08/10 05:26:23;;;;;;;9.77;8.87;;;13.80;99.90;;;;;;6253240;23;20525;-80
2023/08/10 05:29:23;;;;;;;9.33;8.57;;;13.90;99.90;;;;;;6080933;23;20916;-78
2023/08/10 05:32:18;;;;;;;10.37;9.37;;;14.00;99.90;;;;;;6261033;23;20414;-80
2023/08/10 05:35:42;;;;;;;9.57;8.67;;;14.00;99.90;;;;;;6256270;23;20417;-79
2023/08/10 05:42:00;;;;;;;8.60;7.90;;;13.90;99.90;;;;;;6250301;23;20393;-78
2023/08/10 05:51:43;;;;;;;7.97;7.37;;;14.70;99.90;;;;;;6125392;23;20421;-80
2023/08/10 06:00:36;;;;;;;8.80;8.10;;;15.20;99.90;;;;;;6240371;23;20425;-77
2023/08/10 06:06:42;;;;;;;8.27;7.57;;;15.20;99.90;;;;;;6235072;23;20437;-78
2023/08/10 06:09:45;;;;;;;8.10;7.30;;;15.20;99.90;;;;;;6246760;23;20405;-80
2023/08/10 06:15:21;;;;;;;7.73;6.40;;;15.30;99.90;;;;;;6234685;22;20417;-78
2023/08/10 06:18:10;;;;;;;7.27;6.30;;;15.40;99.90;;;;;;6245302;23;20437;-79
2023/08/10 06:20:40;;;;;;;7.60;6.80;;;15.40;99.90;;;;;;6245358;23;20409;-78
2023/08/10 06:23:12;;;;;;;7.87;7.07;;;15.40;99.90;;;;;;6246569;23;20894;-77
2023/08/10 06:25:47;;;;;;;7.17;6.57;;;15.40;99.90;;;;;;6247985;22;20455;-77
2023/08/10 06:28:20;;;;;;;7.80;7.13;;;15.50;99.90;;;;;;6248147;23;20412;-78
2023/08/10 06:30:55;;;;;;;7.27;6.67;;;15.50;99.90;;;;;;6248100;23;20856;-78
2023/08/10 06:33:29;;;;;;;8.80;8.00;;;15.60;99.90;;;;;;6252336;23;20467;-79
2023/08/10 06:35:59;;;;;;;6.97;6.47;;;15.50;99.90;;;;;;6255601;23;20949;-79
2023/08/10 06:38:31;;;;;;;6.27;5.77;;;15.60;99.90;;;;;;6255798;22;20429;-78
2023/08/10 06:41:04;;;;;;;7.67;6.27;;;15.70;99.90;;;;;;6253735;23;20432;-77
2023/08/10 06:43:40;;;;;;;7.07;6.50;;;15.70;99.90;;;;;;6250752;23;20436;-79
2023/08/10 06:46:11;;;;;;;7.20;6.57;;;15.80;99.90;;;;;;6249223;23;20491;-79
2023/08/10 06:48:42;;;;;;;6.60;6.00;;;15.90;99.90;;;;;;6251278;23;20950;-78
2023/08/10 06:51:20;;;;;;;5.57;5.07;;;16.00;99.90;;;;;;6251589;23;20393;-78
2023/08/10 06:54:06;;;;;;;6.50;6.10;;;16.10;99.90;;;;;;6252817;23;20784;-80
2023/08/10 06:56:49;;;;;;;5.73;5.23;;;16.10;99.90;;;;;;6252715;23;20433;-78
2023/08/10 06:59:20;;;;;;;5.20;4.80;;;16.20;99.90;;;;;;6249270;23;20809;-79
2023/08/10 07:01:52;;;;;;;6.30;5.80;;;16.30;99.90;;;;;;6247876;23;20413;-81
2023/08/10 07:04:20;;;;;;;5.30;4.90;;;16.20;99.90;;;;;;6246873;23;20412;-82
2023/08/10 07:06:56;;;;;;;5.33;4.93;;;16.00;99.90;;;;;;6247585;23;20947;-79
2023/08/10 07:09:32;;;;;;;5.27;4.97;;;16.40;99.90;;;;;;6249481;22;20428;-78
2023/08/10 07:12:11;;;;;;;6.10;5.60;;;16.30;99.90;;;;;;6220033;23;20669;-81
2023/08/10 07:17:43;;;;;;;5.80;5.30;;;16.50;99.90;;;;;;6213003;23;20453;-80
2023/08/10 07:20:31;;;;;;;5.80;4.90;;;16.60;99.90;;;;;;6219269;23;20417;-78
2023/08/10 07:29:41;;;;;;;4.97;4.57;;;16.90;99.90;;;;;;6214995;23;20493;-77
2023/08/10 07:32:30;;;;;;;;;;;;;;;;;;;;;
2023/08/10 07:35:06;;;;;;;4.43;4.13;;;16.90;99.90;;;;;;6219478;23;20411;-77
2023/08/10 07:41:12;;;;;;;4.30;4.03;;;17.30;99.90;;;;;;6185734;23;20408;-78
2023/08/10 07:43:46;;;;;;;5.13;4.80;;;17.60;99.90;;;;;;6214415;23;20449;-76
2023/08/10 07:46:37;;;;;;;4.83;4.53;;;17.50;99.90;;;;;;6221211;23;20504;-78
2023/08/10 07:49:14;;;;;;;5.37;5.00;;;17.50;99.90;;;;;;6221523;23;20486;-80
2023/08/10 07:51:47;;;;;;;4.40;4.10;;;17.60;99.90;;;;;;6225660;23;20417;-80
2023/08/10 07:54:15;;;;;;;3.93;3.60;;;17.60;99.90;;;;;;6222578;23;20919;-78
2023/08/10 07:56:50;;;;;;;4.80;4.30;;;17.80;99.90;;;;;;6224814;23;20834;-79
2023/08/10 07:59:19;;;;;;;5.60;4.03;;;17.90;99.90;;;;;;6224722;23;20521;-78
2023/08/10 08:01:47;;;;;;;4.87;4.47;;;17.90;99.90;;;;;;6227236;23;21037;-78
2023/08/10 08:04:15;;;;;;;5.00;4.47;;;18.00;99.90;;;;;;6235502;23;20394;-78
2023/08/10 08:06:49;;;;;;;4.80;4.40;;;18.10;99.90;;;;;;6235154;23;20429;-78
2023/08/10 08:09:20;;;;;;;4.43;4.13;;;18.20;99.90;;;;;;6233233;23;20437;-77
2023/08/10 08:12:02;;;;;;;4.83;4.43;;;18.30;99.90;;;;;;6238057;23;20402;-78
2023/08/10 08:14:30;;;;;;;4.30;4.00;;;18.40;99.90;;;;;;6234905;23;20402;-79
2023/08/10 08:17:00;;;;;;;4.90;4.50;;;18.60;99.90;;;;;;6236646;23;20426;-78
2023/08/10 08:19:37;;;;;;;5.03;4.60;;;18.60;99.90;;;;;;6234747;23;20453;-81
2023/08/10 08:22:08;;;;;;;5.83;3.73;;;18.50;99.90;;;;;;6238162;23;20413;-78
2023/08/10 08:24:49;;;;;;;4.27;3.97;;;18.60;99.90;;;;;;6240216;23;20409;-76
2023/08/10 08:27:30;;;;;;;4.50;4.17;;;18.90;99.90;;;;;;6240037;23;20403;-76
2023/08/10 08:30:06;;;;;;;4.03;3.63;;;19.20;99.90;;;;;;6240239;23;20418;-77
2023/08/10 08:32:38;;;;;;;4.90;4.43;;;19.20;99.90;;;;;;6239964;23;20399;-76
2023/08/10 08:35:14;;;;;;;5.60;4.00;;;19.40;99.90;;;;;;6239918;23;20437;-77
2023/08/10 08:37:48;;;;;;;4.03;3.73;;;19.40;99.90;;;;;;6226964;23;20410;-78
2023/08/10 08:40:16;;;;;;;4.27;3.97;;;19.40;99.90;;;;;;6225033;23;20456;-78
2023/08/10 08:42:48;;;;;;;4.20;3.80;;;19.40;99.90;;;;;;6230533;23;20429;-80
2023/08/10 08:45:23;;;;;;;4.90;4.47;;;19.70;99.90;;;;;;6227874;23;20422;-79
2023/08/10 08:47:54;;;;;;;4.70;4.40;;;19.70;99.90;;;;;;6225461;23;20398;-79
2023/08/10 08:50:28;;;;;;;5.60;4.53;;;20.10;99.90;;;;;;6228997;23;20406;-81
2023/08/10 08:52:59;;;;;;;4.70;4.30;;;20.10;99.90;;;;;;6231985;23;20436;-78
2023/08/10 08:55:35;;;;;;;4.53;4.13;;;20.30;99.90;;;;;;6226933;23;20426;-79
2023/08/10 09:00:55;;;;;;;4.30;4.00;;;20.70;99.90;;;;;;6230583;23;20437;-79
2023/08/10 09:03:25;;;;;;;4.50;4.10;;;20.90;99.90;;;;;;6226209;23;20480;-80
2023/08/10 09:05:54;;;;;;;4.20;3.90;;;21.10;99.90;;;;;;6224973;23;20418;-79
2023/08/10 09:08:22;;;;;;;3.80;3.50;;;21.20;99.90;;;;;;6229098;23;20433;-79
2023/08/10 09:10:53;;;;;;;4.50;4.10;;;21.40;99.90;;;;;;6229684;23;20410;-79
2023/08/10 09:13:24;;;;;;;4.40;4.00;;;21.20;99.90;;;;;;6231114;23;20433;-78
2023/08/10 09:16:07;;;;;;;4.73;3.97;;;21.70;99.90;;;;;;6234635;23;20422;-80
2023/08/10 09:18:48;;;;;;;4.93;4.53;;;22.10;99.90;;;;;;6227538;23;20497;-79
2023/08/10 09:21:26;;;;;;;4.93;4.50;;;22.00;99.90;;;;;;6224402;23;20407;-78
2023/08/10 09:23:59;;;;;;;4.80;4.40;;;22.20;99.90;;;;;;6223511;23;20409;-81
2023/08/10 09:26:35;;;;;;;4.30;4.00;;;22.30;99.90;;;;;;6225335;23;20410;-80
2023/08/10 09:29:07;;;;;;;5.20;4.67;;;22.60;99.90;;;;;;6226177;23;20433;-78
2023/08/10 09:31:44;;;;;;;4.27;3.97;;;22.70;99.90;;;;;;6226138;23;20445;-78
2023/08/10 09:34:23;;;;;;;4.40;4.00;;;23.00;99.90;;;;;;6221366;23;20413;-81
2023/08/10 09:36:56;;;;;;;4.90;4.37;;;23.20;99.90;;;;;;6222143;23;20453;-82
2023/08/10 09:39:32;;;;;;;4.60;4.23;;;23.50;99.90;;;;;;6220404;23;20434;-81
2023/08/10 09:42:03;;;;;;;4.87;4.40;;;23.50;99.90;;;;;;6219580;23;20437;-82
2023/08/10 09:44:57;;;;;;;4.20;3.90;;;23.30;99.90;;;;;;6218549;23;20410;-81
2023/08/10 09:47:31;;;;;;;3.80;3.50;;;22.90;99.90;;;;;;6217927;23;20410;-79
2023/08/10 09:50:12;;;;;;;3.93;3.63;;;23.20;99.90;;;;;;6221638;23;20474;-81
2023/08/10 09:52:53;;;;;;;3.67;3.37;;;23.80;99.90;;;;;;6231016;23;20412;-79
2023/08/10 09:55:27;;;;;;;4.00;3.57;;;24.10;99.90;;;;;;6234787;23;20426;-79
2023/08/10 09:58:28;;;;;;;3.80;3.40;;;24.50;99.90;;;;;;6237439;23;20398;-82
2023/08/10 10:01:19;;;;;;;4.83;3.93;;;24.50;99.90;;;;;;6238644;23;20428;-80
2023/08/10 10:03:52;;;;;;;3.70;3.40;;;24.60;99.90;;;;;;6238262;23;20947;-76
2023/08/10 10:06:37;;;;;;;4.67;4.27;;;24.80;99.90;;;;;;6238393;23;20449;-77
2023/08/10 10:09:10;;;;;;;9.00;4.63;;;24.00;99.90;;;;;;6236751;23;20409;-76
2023/08/10 10:14:54;;;;;;;3.47;3.27;;;24.40;99.90;;;;;;6234591;23;20406;-76
2023/08/10 10:17:29;;;;;;;3.73;3.10;;;24.50;99.90;;;;;;6236840;23;20414;-79
2023/08/10 10:20:20;;;;;;;3.50;3.23;;;24.90;99.90;;;;;;6227638;23;20433;-79
2023/08/10 10:26:07;;;;;;;3.27;3.03;;;25.00;99.90;;;;;;6218935;23;20422;-80
2023/08/10 10:28:41;;;;;;;3.67;3.47;;;25.40;99.90;;;;;;6218015;23;20461;-78
2023/08/10 10:31:12;;;;;;;6.00;4.70;;;25.90;99.90;;;;;;6222683;23;20411;-81
2023/08/10 10:33:59;;;;;;;3.17;2.90;;;26.00;99.90;;;;;;6221897;23;20407;-78
2023/08/10 10:37:34;;;;;;;3.67;3.37;;;26.20;99.90;;;;;;6220383;23;20429;-78
2023/08/10 10:40:29;;;;;;;4.60;3.97;;;26.60;99.90;;;;;;6176512;23;20473;-79
2023/08/10 10:43:17;;;;;;;3.17;2.97;;;26.80;99.90;;;;;;6227367;23;20405;-80
2023/08/10 10:46:04;;;;;;;5.93;3.27;;;26.50;99.90;;;;;;6224186;23;20434;-81
2023/08/10 10:48:42;;;;;;;3.73;3.40;;;26.60;99.90;;;;;;6222143;23;20399;-81
2023/08/10 10:51:16;;;;;;;4.30;3.30;;;26.50;99.90;;;;;;6219366;23;20378;-79
2023/08/10 10:53:48;;;;;;;3.10;2.90;;;26.10;99.90;;;;;;6216318;23;20421;-79
2023/08/10 10:56:33;;;;;;;3.87;3.57;;;26.60;99.90;;;;;;6217590;23;20578;-79
2023/08/10 10:59:17;;;;;;;3.80;3.50;;;26.50;99.90;;;;;;6220161;23;20434;-79
2023/08/10 11:01:55;;;;;;;3.53;3.23;;;26.70;99.90;;;;;;6221311;23;20410;-80
2023/08/10 11:04:33;;;;;;;5.40;3.30;;;27.20;99.90;;;;;;6219454;23;20486;-81
2023/08/10 11:07:15;;;;;;;3.90;3.57;;;27.50;99.90;;;;;;6220183;23;20434;-81
2023/08/10 11:10:04;;;;;;;3.30;3.00;;;26.60;99.90;;;;;;6221955;23;20447;-80
2023/08/10 11:12:35;;;;;;;3.00;2.70;;;27.10;99.90;;;;;;6223786;23;20490;-81
2023/08/10 11:17:59;;;;;;;3.73;3.43;;;28.00;99.90;;;;;;6205174;23;20394;-79
2023/08/10 11:20:51;;;;;;;3.00;2.80;;;27.50;99.90;;;;;;6222383;23;20464;-82
2023/08/10 11:23:37;;;;;;;3.50;3.20;;;27.80;99.90;;;;;;6224403;23;20494;-79
2023/08/10 11:26:11;;;;;;;3.70;3.13;;;27.40;99.90;;;;;;6222100;23;20501;-78
2023/08/10 11:28:45;;;;;;;8.17;3.03;;;26.50;99.90;;;;;;6224946;23;20643;-77
2023/08/10 11:31:21;;;;;;;3.40;3.10;;;26.50;99.90;;;;;;6224038;23;20406;-79
2023/08/10 11:34:00;;;;;;;3.13;2.87;;;26.90;99.90;;;;;;6222637;23;20417;-79
2023/08/10 11:36:33;;;;;;;3.03;2.90;;;27.20;99.90;;;;;;6224437;23;20434;-80
2023/08/10 11:39:13;;;;;;;3.40;3.20;;;27.40;99.90;;;;;;6225705;23;20445;-78
2023/08/10 11:41:47;;;;;;;3.90;3.00;;;27.90;99.90;;;;;;6225675;23;20417;-78
2023/08/10 11:44:36;;;;;;;2.63;2.53;;;28.30;99.90;;;;;;6225283;23;20505;-79
2023/08/10 11:47:07;;;;;;;3.27;3.00;;;28.60;99.90;;;;;;6229069;23;20433;-78
2023/08/10 11:49:40;;;;;;;2.70;2.50;;;29.00;99.90;;;;;;6226839;23;20406;-78
2023/08/10 11:52:17;;;;;;;7.20;6.70;;;29.50;99.90;;;;;;6229630;23;20420;-77
2023/08/10 11:55:07;;;;;;;2.90;2.70;;;29.80;99.90;;;;;;6228757;23;20460;-78
2023/08/10 11:57:39;;;;;;;2.70;2.50;;;29.60;99.90;;;;;;6230029;23;20414;-77
2023/08/10 12:00:23;;;;;;;3.20;2.70;;;29.70;99.90;;;;;;6229919;23;20444;-78
2023/08/10 12:03:07;;;;;;;2.90;2.70;;;29.50;99.90;;;;;;6227524;23;20512;-79
2023/08/10 12:05:49;;;;;;;2.70;2.50;;;29.70;99.90;;;;;;6224446;23;20430;-79
2023/08/10 12:08:21;;;;;;;3.77;3.40;;;29.70;99.90;;;;;;6224110;23;20406;-79
2023/08/10 12:11:11;;;;;;;4.40;2.80;;;29.80;99.90;;;;;;6222828;23;20410;-77
2023/08/10 12:13:46;;;;;;;2.97;2.77;;;29.70;99.90;;;;;;6226973;23;20410;-78
2023/08/10 12:16:18;;;;;;;2.97;2.77;;;29.90;99.90;;;;;;6221862;23;20446;-80
2023/08/10 12:18:53;;;;;;;2.53;2.40;;;30.10;99.90;;;;;;6224502;23;20428;-80
2023/08/10 12:21:21;;;;;;;3.00;2.80;;;30.10;99.90;;;;;;6223508;23;20436;-79
2023/08/10 12:23:50;;;;;;;2.60;2.50;;;30.20;99.90;;;;;;6223263;23;20434;-78
2023/08/10 12:26:25;;;;;;;4.40;2.60;;;30.20;98.70;;;;;;6221616;23;20433;-79
2023/08/10 12:28:53;;;;;;;3.00;2.70;;;30.10;98.50;;;;;;6220336;23;20500;-80
2023/08/10 12:31:24;;;;;;;2.93;2.73;;;30.00;98.60;;;;;;6221470;23;20441;-78
2023/08/10 12:33:55;;;;;;;3.63;3.33;;;29.80;99.40;;;;;;6221313;23;20438;-80
2023/08/10 12:36:25;;;;;;;3.13;2.80;;;29.60;99.90;;;;;;6221277;23;20730;-79
2023/08/10 12:39:05;;;;;;;2.90;2.63;;;29.00;98.00;;;;;;6225206;23;20417;-78
2023/08/10 12:41:38;;;;;;;2.90;2.70;;;29.40;98.50;;;;;;6220385;23;20410;-79
2023/08/10 12:44:13;;;;;;;2.37;2.27;;;30.00;99.90;;;;;;6221237;23;20413;-78
2023/08/10 12:46:47;;;;;;;2.83;2.63;;;30.50;96.90;;;;;;6221335;23;20497;-80
2023/08/10 12:53:12;;;;;;;3.43;3.23;;;30.60;95.00;;;;;;5883091;23;20474;-78
2023/08/10 13:02:26;;;;;;;;;;;;;;;;;;;;;
2023/08/10 13:08:16;;;;;;;4.00;2.53;;;30.60;93.70;;;;;;6067269;23;20407;-80
2023/08/10 13:10:48;;;;;;;2.30;2.10;;;31.10;93.50;;;;;;6184964;23;20400;-79
2023/08/10 13:13:17;;;;;;;4.60;3.00;;;31.90;94.50;;;;;;6218608;23;20900;-79
2023/08/10 13:15:45;;;;;;;2.93;2.73;;;32.00;91.50;;;;;;6219849;23;20457;-79
2023/08/10 13:18:18;;;;;;;3.47;2.77;;;31.30;90.60;;;;;;6222980;23;20794;-78
2023/08/10 13:20:46;;;;;;;3.10;2.50;;;31.20;97.60;;;;;;6221119;23;20477;-80
2023/08/10 13:23:21;;;;;;;2.37;2.27;;;31.20;96.90;;;;;;6221119;23;20417;-78
2023/08/10 13:25:54;;;;;;;2.90;2.70;;;31.20;94.90;;;;;;6221654;23;20434;-77
2023/08/10 13:28:27;;;;;;;2.90;2.70;;;31.20;94.50;;;;;;6223266;23;20418;-77
2023/08/10 13:31:06;;;;;;;2.77;2.57;;;31.30;94.60;;;;;;6223899;23;20744;-78
2023/08/10 13:33:37;;;;;;;3.43;3.13;;;31.10;92.20;;;;;;6224175;23;20418;-79
2023/08/10 13:36:10;;;;;;;2.73;2.50;;;31.10;96.30;;;;;;6224054;23;20555;-78
2023/08/10 13:38:43;;;;;;;2.93;2.73;;;31.60;92.70;;;;;;6223529;23;20406;-81
2023/08/10 13:41:26;;;;;;;2.63;2.47;;;31.70;91.30;;;;;;6224260;23;20442;-78
2023/08/10 13:44:00;;;;;;;2.93;2.73;;;31.70;94.50;;;;;;6229076;23;20429;-81
2023/08/10 13:46:28;;;;;;;3.20;2.90;;;31.90;94.30;;;;;;6227317;23;20441;-79
2023/08/10 13:49:02;;;;;;;3.07;2.87;;;31.00;93.80;;;;;;6227394;23;20823;-79
2023/08/10 13:51:34;;;;;;;2.70;2.50;;;30.10;90.30;;;;;;6225419;23;20409;-79
2023/08/10 13:54:02;;;;;;;3.10;2.90;;;30.40;90.40;;;;;;6223812;23;20876;-78
2023/08/10 13:57:01;;;;;;;2.53;2.43;;;;;;;;;;6223731;23;20740;-78
2023/08/10 13:59:35;;;;;;;2.87;2.77;;;31.00;92.00;;;;;;6225290;23;20438;-77
2023/08/10 14:02:09;;;;;;;4.73;2.67;;;31.80;97.00;;;;;;6224059;23;20743;-79
2023/08/10 14:04:38;;;;;;;3.00;2.80;;;32.00;97.00;;;;;;6224286;23;20413;-79
2023/08/10 14:07:07;;;;;;;2.80;2.60;;;32.00;84.30;;;;;;6224069;23;20528;-79
2023/08/10 14:09:34;;;;;;;2.50;2.30;;;32.10;85.00;;;;;;6229313;23;20410;-79
2023/08/10 14:12:04;;;;;;;2.33;2.23;;;32.20;83.70;;;;;;6228996;23;20470;-79
2023/08/10 14:14:42;;;;;;;2.30;2.20;;;32.40;82.60;;;;;;6229558;23;20421;-80
2023/08/10 14:17:11;;;;;;;2.70;2.50;;;32.20;82.00;;;;;;6228484;23;20387;-81
2023/08/10 14:19:40;;;;;;;2.50;2.30;;;32.00;82.30;;;;;;6229087;23;20437;-80
2023/08/10 14:22:08;;;;;;;3.10;2.90;;;31.40;81.70;;;;;;6229912;23;20500;-79
2023/08/10 14:24:52;;;;;;;3.20;2.87;;;31.30;82.50;;;;;;6233892;23;20412;-81
2023/08/10 14:27:28;;;;;;;3.40;3.10;;;31.30;81.30;;;;;;6227068;23;20421;-80
2023/08/10 14:30:04;;;;;;;2.77;2.57;;;31.20;80.80;;;;;;6228014;23;20571;-77
2023/08/10 14:32:51;;;;;;;2.67;2.47;;;30.70;81.90;;;;;;6227777;23;20800;-81
2023/08/10 14:35:39;;;;;;;3.03;2.83;;;29.90;84.30;;;;;;6227100;23;20429;-80
2023/08/10 14:38:13;;;;;;;3.13;2.83;;;29.90;84.20;;;;;;6229154;23;20421;-79
2023/08/10 14:40:40;;;;;;;3.60;3.17;;;30.90;82.30;;;;;;6226835;23;20433;-80
2023/08/10 14:43:18;;;;;;;3.23;3.03;;;31.10;81.60;;;;;;6231349;23;20401;-78
2023/08/10 14:45:49;;;;;;;2.70;2.50;;;31.30;80.90;;;;;;6236140;23;20426;-80
2023/08/10 14:48:26;;;;;;;2.83;2.60;;;31.70;80.40;;;;;;6234164;23;20437;-81
2023/08/10 14:51:02;;;;;;;2.87;2.73;;;31.90;79.80;;;;;;6234439;23;20401;-80
2023/08/10 14:53:39;;;;;;;2.80;2.60;;;32.40;79.20;;;;;;6233639;23;20468;-79
2023/08/10 14:56:07;;;;;;;2.60;2.40;;;32.60;78.70;;;;;;6233329;23;20507;-80
2023/08/10 14:58:38;;;;;;;2.90;2.53;;;32.30;78.80;;;;;;6232854;23;20399;-78
2023/08/10 15:01:09;;;;;;;2.83;2.63;;;32.00;78.00;;;;;;6230379;23;20426;-80
2023/08/10 15:03:37;;;;;;;2.50;2.30;;;31.70;79.60;;;;;;6201555;23;20417;-78
2023/08/10 15:06:12;;;;;;;2.50;2.30;;;31.30;76.40;;;;;;6228469;23;20454;-79
2023/08/10 15:08:51;;;;;;;2.37;2.23;;;31.40;76.30;;;;;;6227390;23;20671;-79
2023/08/10 15:11:25;;;;;;;3.03;2.73;;;30.20;74.90;;;;;;6227058;23;20406;-78
2023/08/10 15:13:59;;;;;;;2.50;2.30;;;31.90;76.20;;;;;;6227259;23;20414;-79
2023/08/10 15:16:38;;;;;;;2.73;2.60;;;31.50;77.00;;;;;;6228015;23;20459;-80
2023/08/10 15:19:06;;;;;;;2.40;2.30;;;31.10;78.20;;;;;;6228344;23;20480;-81
2023/08/10 15:21:42;;;;;;;2.50;2.30;;;32.00;76.00;;;;;;6228222;23;20494;-81
2023/08/10 15:24:11;;;;;;;2.87;2.43;;;31.90;75.30;;;;;;6228425;23;20460;-80
2023/08/10 15:26:50;;;;;;;2.80;2.60;;;32.10;75.60;;;;;;6227659;23;20437;-82
2023/08/10 15:29:19;;;;;;;2.60;2.50;;;32.00;75.60;;;;;;6229270;23;20433;-81
2023/08/10 15:31:47;;;;;;;2.77;2.57;;;31.60;77.40;;;;;;6232165;23;20390;-80
2023/08/10 15:34:18;;;;;;;2.40;2.30;;;31.50;78.60;;;;;;6233323;23;20441;-80
2023/08/10 15:36:47;;;;;;;2.43;2.33;;;32.10;75.80;;;;;;6233008;23;20437;-80
2023/08/10 15:39:15;;;;;;;2.50;2.40;;;32.10;76.40;;;;;;6234645;23;20407;-80
2023/08/10 15:41:43;;;;;;;5.60;2.40;;;32.30;76.60;;;;;;6232374;23;20517;-80
2023/08/10 15:44:11;;;;;;;2.50;2.23;;;32.40;76.50;;;;;;6225793;23;20414;-78
2023/08/10 15:46:38;;;;;;;2.10;2.00;;;31.00;76.90;;;;;;6227054;23;20425;-80
2023/08/10 15:49:10;;;;;;;2.53;2.30;;;31.00;78.40;;;;;;6226996;23;20402;-79